Position Information

EPWA_APP
128.805 MHz
eu16.ts.ivao.aero/EPWA_APP
Warszawa Approach
Information CHARLIE recorded at 1948z
EPWA 091930Z 14004KT CAVOK 23/17 Q1018 NOSIG
ARR RWY 11 / DEP RWY 15 / TRL FL80 / TA 6500ft
RMK EPMO ILS APP RUNWAY 08 | EPWA ILS Y APP RUNWAY 11
CONFIRM ATIS INFO CHARLIE on initial contact
APC 579423 (579423)